Vidanta Alegria — C6WC2 — position and weather

sailwx.info

Track history (hours):
 
Tides and Currents Weather Stations Pressure Air Temp Water Temp Dewpoint Dewpoint Depression Visibility Wind Speed Wind Dir Waves Ship Positions

Vidanta Alegria

Last reported at 2017-Oct-22 21:51 UTC. Time now 2017-Nov-24 22:25 UTC.
Position N 35°60' W 005°27'.
Warning: this ship's position is 33 days out of date.

Length 151 m; draft 5.8 m.

Type: Ship. MMSI: 309695000.

Date/timePositionNaut miles runAvg speedWind from/ knotsBaromVisibWave heightAir tempDewpointWater temp
2017-Oct-22 21:51N 35°60' W 005°27'3 9.2
2017-Oct-22 21:30N 36°01' W 005°23'22510.8
2017-Oct-22 00:41N 36°42' W 000°48'3511.0
2017-Oct-21 21:30N 36°50' W 000°05'511.0
2017-Oct-21 21:00N 36°52' E 000°01'510.9
2017-Oct-21 20:30N 36°53' E 000°08'610.9
2017-Oct-21 20:00N 36°54' E 000°14'511.0
2017-Oct-21 19:30N 36°56' E 000°21'611.0
2017-Oct-21 19:00N 36°57' E 000°28'611.0
2017-Oct-21 18:30N 36°58' E 000°34'611.0
2017-Oct-21 18:00N 36°59' E 000°41'611.0
2017-Oct-21 17:30N 36°60' E 000°48'510.9
2017-Oct-21 17:00N 37°01' E 000°55'510.9
2017-Oct-21 16:30N 37°02' E 001°01'511.0
2017-Oct-21 16:00N 37°03' E 001°08'59111.7
2017-Oct-19 13:17N 36°46' E 013°27'413.8
2017-Oct-19 13:00N 36°44' E 013°31'713.7
2017-Oct-19 12:28N 36°41' E 013°40'613.6
2017-Oct-19 12:00N 36°38' E 013°47'713.5
2017-Oct-19 11:30N 36°36' E 013°55'713.5
2017-Oct-19 11:00N 36°33' E 014°02'813.4
2017-Oct-19 10:26N 36°30' E 014°11'613.2
2017-Oct-19 10:00N 36°27' E 014°18'613.0
2017-Oct-19 09:30N 36°25' E 014°25'713.0
2017-Oct-19 09:00N 36°22' E 014°32'713.1
2017-Oct-19 08:30N 36°20' E 014°40'  
Track history (hours):
 
Tides and Currents Weather Stations Pressure Air Temp Water Temp Dewpoint Dewpoint Depression Visibility Wind Speed Wind Dir Waves Ship Positions

Vidanta Alegria

Last reported at 2017-Oct-22 21:51 UTC. Time now 2017-Nov-24 22:25 UTC.
Position N 35°60' W 005°27'.
Warning: this ship's position is 33 days out of date.

Length 151 m; draft 5.8 m.

Type: Ship. MMSI: 309695000.

Date/timePositionNaut miles runAvg speedWind from/ knotsBaromVisibWave heightAir tempDewpointWater temp
2017-Oct-22 21:51N 35°60' W 005°27'3 9.2
2017-Oct-22 21:30N 36°01' W 005°23'22510.8
2017-Oct-22 00:41N 36°42' W 000°48'3511.0
2017-Oct-21 21:30N 36°50' W 000°05'511.0
2017-Oct-21 21:00N 36°52' E 000°01'510.9
2017-Oct-21 20:30N 36°53' E 000°08'610.9
2017-Oct-21 20:00N 36°54' E 000°14'511.0
2017-Oct-21 19:30N 36°56' E 000°21'611.0
2017-Oct-21 19:00N 36°57' E 000°28'611.0
2017-Oct-21 18:30N 36°58' E 000°34'611.0
2017-Oct-21 18:00N 36°59' E 000°41'611.0
2017-Oct-21 17:30N 36°60' E 000°48'510.9
2017-Oct-21 17:00N 37°01' E 000°55'510.9
2017-Oct-21 16:30N 37°02' E 001°01'511.0
2017-Oct-21 16:00N 37°03' E 001°08'59111.7
2017-Oct-19 13:17N 36°46' E 013°27'413.8
2017-Oct-19 13:00N 36°44' E 013°31'713.7
2017-Oct-19 12:28N 36°41' E 013°40'613.6
2017-Oct-19 12:00N 36°38' E 013°47'713.5
2017-Oct-19 11:30N 36°36' E 013°55'713.5
2017-Oct-19 11:00N 36°33' E 014°02'813.4
2017-Oct-19 10:26N 36°30' E 014°11'613.2
2017-Oct-19 10:00N 36°27' E 014°18'613.0
2017-Oct-19 09:30N 36°25' E 014°25'713.0
2017-Oct-19 09:00N 36°22' E 014°32'713.1
2017-Oct-19 08:30N 36°20' E 014°40'  

Dump ship's entire track history